Time;durP1;ratioP1;P1;durP2;ratioP2;P2;SDS_P1;SDS_P2;PMS_P1;PMS_P2;Temp;Humidity;BMP_temperature;BMP_pressure;BME280_temperature;BME280_humidity;BME280_pressure;Samples;Min_cycle;Max_cycle;Signal;HPM_P1;HPM_P2
2023/01/23 00:02:18;;;;;;;4.18;2.13;;;2.10;99.90;;;;;;5003054;28;20069;-57
2023/01/23 00:04:44;;;;;;;5.30;2.25;;;2.10;99.90;;;;;;5005939;28;20087;-55
2023/01/23 00:07:09;;;;;;;5.30;2.40;;;2.10;99.90;;;;;;5007464;28;20083;-56
2023/01/23 00:09:35;;;;;;;3.42;2.53;;;2.00;99.90;;;;;;5005578;28;20514;-56
2023/01/23 00:12:01;;;;;;;3.13;1.67;;;2.00;99.90;;;;;;5004768;28;20392;-54
2023/01/23 00:14:26;;;;;;;4.22;2.15;;;2.00;99.90;;;;;;5007164;28;20026;-55
2023/01/23 00:16:52;;;;;;;3.90;1.45;;;2.00;99.90;;;;;;5005814;28;20326;-57
2023/01/23 00:19:19;;;;;;;3.15;1.42;;;2.00;99.90;;;;;;5005433;28;20033;-56
2023/01/23 00:21:44;;;;;;;1.83;1.60;;;1.90;99.90;;;;;;5005643;28;20022;-56
2023/01/23 00:24:11;;;;;;;4.30;1.65;;;1.90;99.90;;;;;;5004235;28;20506;-52
2023/01/23 00:26:37;;;;;;;2.50;1.45;;;1.90;99.90;;;;;;5005620;28;20488;-56
2023/01/23 00:29:03;;;;;;;3.00;1.33;;;1.90;99.90;;;;;;5005477;28;20022;-56
2023/01/23 00:31:33;;;;;;;3.13;1.80;;;1.90;99.90;;;;;;5005164;28;20057;-52
2023/01/23 00:34:02;;;;;;;2.10;1.30;;;1.80;99.90;;;;;;5006988;28;20022;-56
2023/01/23 00:36:31;;;;;;;1.60;1.40;;;1.80;99.90;;;;;;5006503;28;20022;-56
2023/01/23 00:38:56;;;;;;;2.42;1.30;;;1.80;99.90;;;;;;5007328;28;20117;-56
2023/01/23 00:41:23;;;;;;;2.28;1.40;;;1.80;99.90;;;;;;5008892;28;20116;-56
2023/01/23 00:43:50;;;;;;;2.78;1.50;;;1.80;99.90;;;;;;5011490;28;20395;-57
2023/01/23 00:46:16;;;;;;;1.45;1.23;;;1.80;99.90;;;;;;5008900;28;20069;-55
2023/01/23 00:48:42;;;;;;;2.53;1.20;;;1.80;99.90;;;;;;5007935;28;20369;-56
2023/01/23 00:51:08;;;;;;;2.63;1.20;;;1.80;99.90;;;;;;5009282;28;20030;-55
2023/01/23 00:53:33;;;;;;;4.10;1.10;;;1.80;99.90;;;;;;5006949;28;20030;-55
2023/01/23 00:55:59;;;;;;;1.38;1.00;;;1.70;99.90;;;;;;5009434;28;20405;-55
2023/01/23 00:58:24;;;;;;;1.48;1.17;;;1.70;99.90;;;;;;5009675;28;20036;-56
2023/01/23 01:00:50;;;;;;;2.13;1.08;;;1.70;99.90;;;;;;5008068;28;20034;-56
2023/01/23 01:03:16;;;;;;;2.38;1.33;;;1.70;99.90;;;;;;5008913;28;20399;-55
2023/01/23 01:05:41;;;;;;;1.30;1.10;;;1.70;99.90;;;;;;5007794;28;20034;-55
2023/01/23 01:08:07;;;;;;;1.50;1.10;;;1.80;99.90;;;;;;5009903;28;20030;-55
2023/01/23 01:10:33;;;;;;;3.33;1.73;;;1.80;99.90;;;;;;5007213;28;21412;-54
2023/01/23 01:13:00;;;;;;;2.17;1.30;;;1.70;99.90;;;;;;5006255;28;20018;-55
2023/01/23 01:15:26;;;;;;;2.65;1.83;;;1.70;99.90;;;;;;5006993;28;20065;-56
2023/01/23 01:17:53;;;;;;;5.35;1.75;;;1.70;99.90;;;;;;5007159;28;20022;-56
2023/01/23 01:20:24;;;;;;;3.53;1.85;;;1.80;99.90;;;;;;5006463;28;20719;-56
2023/01/23 01:22:50;;;;;;;4.95;2.17;;;1.80;99.90;;;;;;5008836;28;20030;-57
2023/01/23 01:25:16;;;;;;;5.93;2.75;;;1.70;99.90;;;;;;5006128;28;20488;-58
2023/01/23 01:27:42;;;;;;;3.63;2.53;;;1.80;99.90;;;;;;5002845;28;20066;-56
2023/01/23 01:30:08;;;;;;;5.43;2.75;;;1.70;99.90;;;;;;5006525;28;20069;-54
2023/01/23 01:32:38;;;;;;;4.82;3.17;;;1.70;99.90;;;;;;5004459;28;20089;-53
2023/01/23 01:35:05;;;;;;;3.25;2.75;;;1.70;99.90;;;;;;5005911;28;20041;-57
2023/01/23 01:37:36;;;;;;;4.13;2.70;;;1.70;99.90;;;;;;5007025;28;20060;-55
2023/01/23 01:40:03;;;;;;;4.45;2.78;;;1.70;99.90;;;;;;5005128;28;20025;-56
2023/01/23 01:42:28;;;;;;;4.43;2.92;;;1.70;99.90;;;;;;5008281;28;20034;-56
2023/01/23 01:45:00;;;;;;;4.15;3.13;;;1.70;99.90;;;;;;5005640;28;20585;-56
2023/01/23 01:47:26;;;;;;;5.70;3.08;;;1.70;99.90;;;;;;5005487;28;20080;-55
2023/01/23 01:49:57;;;;;;;4.47;3.40;;;1.70;99.90;;;;;;5002968;28;20436;-56
2023/01/23 01:52:24;;;;;;;3.72;2.95;;;1.70;99.90;;;;;;5005744;28;20026;-53
2023/01/23 01:55:01;;;;;;;5.45;3.35;;;1.70;99.90;;;;;;5006871;28;20491;-57
2023/01/23 01:57:30;;;;;;;3.55;2.97;;;1.70;99.90;;;;;;5003637;28;20026;-56
2023/01/23 02:00:15;;;;;;;3.80;2.97;;;1.70;99.90;;;;;;5004842;28;20021;-57
2023/01/23 02:02:50;;;;;;;4.50;3.35;;;1.70;99.90;;;;;;5003923;28;20026;-56
2023/01/23 02:05:20;;;;;;;4.72;3.15;;;1.70;99.90;;;;;;5005528;28;20057;-56
2023/01/23 02:07:56;;;;;;;8.80;3.97;;;1.70;99.90;;;;;;5007093;28;20022;-55
2023/01/23 02:10:22;;;;;;;6.57;3.42;;;1.70;99.90;;;;;;5002216;28;20041;-57
2023/01/23 02:12:50;;;;;;;5.20;3.88;;;1.70;99.90;;;;;;5004503;28;20068;-56
2023/01/23 02:15:17;;;;;;;5.60;3.75;;;1.70;99.90;;;;;;5003529;28;20781;-55
2023/01/23 02:17:43;;;;;;;4.35;3.92;;;1.70;99.90;;;;;;5002448;28;20462;-56
2023/01/23 02:20:19;;;;;;;4.68;4.18;;;1.70;99.90;;;;;;5006783;28;20088;-55
2023/01/23 02:23:00;;;;;;;;;;;1.70;99.90;;;;;;5001976;28;20030;-58
2023/01/23 02:25:44;;;;;;;7.10;3.80;;;1.70;99.90;;;;;;5001535;28;19971;-55
2023/01/23 02:28:11;;;;;;;4.60;4.13;;;1.70;99.90;;;;;;5003056;28;20033;-54
2023/01/23 02:30:39;;;;;;;5.70;4.00;;;1.60;99.90;;;;;;5005171;28;20026;-57
2023/01/23 02:33:19;;;;;;;5.30;4.18;;;1.60;99.90;;;;;;5006931;28;20104;-56
2023/01/23 02:35:45;;;;;;;5.38;4.55;;;1.60;99.90;;;;;;5003855;28;20061;-55
2023/01/23 02:38:11;;;;;;;5.70;3.67;;;1.60;99.90;;;;;;5007663;28;20099;-56
2023/01/23 02:40:40;;;;;;;5.57;4.55;;;1.50;99.90;;;;;;5006010;28;20090;-57
2023/01/23 02:43:09;;;;;;;6.13;4.13;;;1.50;99.90;;;;;;5005849;28;20030;-55
2023/01/23 02:45:35;;;;;;;5.20;4.60;;;1.50;99.90;;;;;;5006217;28;20034;-57
2023/01/23 02:48:01;;;;;;;5.40;4.32;;;1.50;99.90;;;;;;5003183;28;20037;-56
2023/01/23 02:50:28;;;;;;;6.35;4.82;;;1.50;99.90;;;;;;5005260;28;20034;-55
2023/01/23 02:52:54;;;;;;;9.05;4.93;;;1.50;99.90;;;;;;5003390;28;20021;-54
2023/01/23 02:55:20;;;;;;;5.60;4.50;;;1.50;99.90;;;;;;5004677;28;20014;-57
2023/01/23 02:57:46;;;;;;;7.35;5.18;;;1.50;99.90;;;;;;5004957;28;20033;-53
2023/01/23 03:00:16;;;;;;;5.10;4.53;;;1.50;99.90;;;;;;5003480;28;20034;-57
2023/01/23 03:02:42;;;;;;;7.40;5.03;;;1.50;99.90;;;;;;5005128;28;20084;-57
2023/01/23 03:05:08;;;;;;;5.88;4.50;;;1.50;99.90;;;;;;5004170;28;20080;-53
2023/01/23 03:07:34;;;;;;;5.88;4.80;;;1.50;99.90;;;;;;5004469;28;20038;-57
2023/01/23 03:10:01;;;;;;;6.15;5.05;;;1.40;99.90;;;;;;5004651;28;20507;-56
2023/01/23 03:12:26;;;;;;;7.90;4.88;;;1.40;99.90;;;;;;5004556;28;20130;-56
2023/01/23 03:14:53;;;;;;;8.40;5.13;;;1.40;99.90;;;;;;5006647;28;20492;-58
2023/01/23 03:17:20;;;;;;;6.50;4.60;;;1.40;99.90;;;;;;5006180;28;20026;-57
2023/01/23 03:19:45;;;;;;;7.80;5.20;;;1.40;99.90;;;;;;5005813;28;20053;-56
2023/01/23 03:22:11;;;;;;;5.47;4.45;;;1.40;99.90;;;;;;5004612;28;20030;-55
2023/01/23 03:24:37;;;;;;;8.45;5.13;;;1.50;99.90;;;;;;5004790;28;20093;-54
2023/01/23 03:27:03;;;;;;;5.05;4.55;;;1.50;99.90;;;;;;5003999;28;20053;-52
2023/01/23 03:32:14;;;;;;;6.22;3.95;;;1.40;99.90;;;;;;5004472;28;20584;-55
2023/01/23 03:34:40;;;;;;;5.32;3.90;;;1.40;99.90;;;;;;5005596;28;20037;-55
2023/01/23 03:37:07;;;;;;;5.88;4.13;;;1.40;99.90;;;;;;5004481;28;20034;-56
2023/01/23 03:42:17;;;;;;;6.13;4.20;;;1.30;99.90;;;;;;5004359;28;20451;-57
2023/01/23 03:44:43;;;;;;;6.43;3.97;;;1.40;99.90;;;;;;5004982;28;20037;-57
2023/01/23 03:47:08;;;;;;;6.72;3.70;;;1.30;99.90;;;;;;5006365;28;20033;-58
2023/01/23 03:49:35;;;;;;;6.20;3.28;;;1.30;99.90;;;;;;5004799;28;20027;-57
2023/01/23 03:52:01;;;;;;;3.35;3.05;;;1.30;99.90;;;;;;5006020;28;20455;-56
2023/01/23 03:54:27;;;;;;;5.55;3.50;;;1.30;99.90;;;;;;5002334;28;20045;-54
2023/01/23 03:56:53;;;;;;;3.67;3.05;;;1.30;99.90;;;;;;5004739;28;20105;-54
2023/01/23 03:59:18;;;;;;;3.10;2.60;;;1.30;99.90;;;;;;5004250;28;20937;-55
2023/01/23 04:01:45;;;;;;;3.53;2.70;;;1.30;99.90;;;;;;5005551;28;20057;-55
2023/01/23 04:04:10;;;;;;;4.25;2.90;;;1.30;99.90;;;;;;5003431;28;20054;-56
2023/01/23 04:06:36;;;;;;;5.32;2.92;;;1.30;99.90;;;;;;5003176;28;20483;-55
2023/01/23 04:09:02;;;;;;;3.75;2.75;;;1.30;99.90;;;;;;5008847;28;20042;-57
2023/01/23 04:11:27;;;;;;;3.45;3.10;;;1.30;99.90;;;;;;5006422;28;20061;-54
2023/01/23 04:13:53;;;;;;;4.65;3.03;;;1.30;99.90;;;;;;5007134;28;20476;-55
2023/01/23 04:16:21;;;;;;;4.57;3.30;;;1.30;99.90;;;;;;5008082;28;20026;-57
2023/01/23 04:18:47;;;;;;;5.53;3.65;;;1.30;99.90;;;;;;5007308;28;20025;-53
2023/01/23 04:21:13;;;;;;;6.40;3.85;;;1.40;99.90;;;;;;5008627;28;20034;-54
2023/01/23 04:23:38;;;;;;;6.50;4.30;;;1.30;99.90;;;;;;5017146;22;20043;-61
2023/01/23 04:26:04;;;;;;;5.15;4.10;;;1.40;99.90;;;;;;4999747;28;20029;-61
2023/01/23 04:28:29;;;;;;;7.80;4.97;;;1.30;99.90;;;;;;5000512;28;20488;-58
2023/01/23 04:30:55;;;;;;;5.45;4.53;;;1.40;99.90;;;;;;5001382;28;20399;-60
2023/01/23 04:33:21;;;;;;;8.27;5.38;;;1.40;99.90;;;;;;4994974;28;20033;-59
2023/01/23 04:35:53;;;;;;;7.82;5.05;;;1.30;99.90;;;;;;4987373;28;20030;-60
2023/01/23 04:38:19;;;;;;;7.85;5.82;;;1.30;99.90;;;;;;4988302;28;20109;-56
2023/01/23 04:40:45;;;;;;;7.47;5.45;;;1.40;99.90;;;;;;4987831;28;20113;-60
2023/01/23 04:43:11;;;;;;;8.65;5.95;;;1.40;99.90;;;;;;4988133;28;20037;-59
2023/01/23 04:45:37;;;;;;;10.65;6.40;;;1.30;99.90;;;;;;4988368;28;20031;-60
2023/01/23 04:48:03;;;;;;;8.27;6.32;;;1.40;99.90;;;;;;4989587;28;20512;-59
2023/01/23 04:50:28;;;;;;;6.75;5.50;;;1.30;99.90;;;;;;4988675;28;20536;-57
2023/01/23 04:52:54;;;;;;;8.73;5.88;;;1.30;99.90;;;;;;4988198;28;20026;-60
2023/01/23 04:55:19;;;;;;;9.13;5.75;;;1.40;99.90;;;;;;4989156;28;20516;-59
2023/01/23 04:57:45;;;;;;;8.00;5.60;;;1.40;99.90;;;;;;4987492;28;20038;-60
2023/01/23 05:00:12;;;;;;;7.13;5.38;;;1.40;99.90;;;;;;4988697;28;20492;-60
2023/01/23 05:02:38;;;;;;;7.10;5.65;;;1.40;99.90;;;;;;4989816;28;20076;-57
2023/01/23 05:05:03;;;;;;;8.88;6.00;;;1.40;99.90;;;;;;4986806;28;20481;-60
2023/01/23 05:07:29;;;;;;;9.38;6.00;;;1.40;99.90;;;;;;4988698;28;20505;-63
2023/01/23 05:09:55;;;;;;;11.05;6.80;;;1.40;99.90;;;;;;4987780;28;20141;-60
2023/01/23 05:12:20;;;;;;;7.53;5.80;;;1.40;99.90;;;;;;4986333;28;20117;-61
2023/01/23 05:14:46;;;;;;;6.65;5.20;;;1.40;99.90;;;;;;4989160;28;20155;-62
2023/01/23 05:17:11;;;;;;;8.48;5.72;;;1.40;99.90;;;;;;4988714;28;20480;-61
2023/01/23 05:19:37;;;;;;;9.63;5.78;;;1.40;99.90;;;;;;4989794;28;20506;-61
2023/01/23 05:22:02;;;;;;;8.63;6.20;;;1.40;99.90;;;;;;4987186;28;20625;-61
2023/01/23 05:24:28;;;;;;;9.60;5.97;;;1.30;99.90;;;;;;4988207;28;20516;-63
2023/01/23 05:26:53;;;;;;;8.63;5.97;;;1.40;99.90;;;;;;4986526;28;20497;-59
2023/01/23 05:29:19;;;;;;;8.32;5.47;;;1.40;99.90;;;;;;4988261;28;20030;-62
2023/01/23 05:31:44;;;;;;;8.05;5.60;;;1.40;99.90;;;;;;4986733;28;20030;-58
2023/01/23 05:34:10;;;;;;;8.23;5.90;;;1.40;99.90;;;;;;4987140;28;20027;-61
2023/01/23 05:36:36;;;;;;;8.93;5.63;;;1.40;99.90;;;;;;4986263;28;20101;-60
2023/01/23 05:39:01;;;;;;;10.27;5.80;;;1.40;99.90;;;;;;4987312;28;20022;-60
2023/01/23 05:41:27;;;;;;;8.80;6.00;;;1.40;99.90;;;;;;4986385;28;20102;-61
2023/01/23 05:43:52;;;;;;;7.57;6.32;;;1.40;99.90;;;;;;4987611;28;20050;-58
2023/01/23 05:46:18;;;;;;;8.93;5.45;;;1.40;99.90;;;;;;4986173;28;20033;-59
2023/01/23 05:48:46;;;;;;;8.50;6.40;;;1.40;99.90;;;;;;4988083;28;20690;-59
2023/01/23 05:51:12;;;;;;;9.57;6.72;;;1.40;99.90;;;;;;4986492;28;20073;-58
2023/01/23 05:53:37;;;;;;;10.98;7.35;;;1.40;99.90;;;;;;4986892;28;20394;-59
2023/01/23 05:56:07;;;;;;;11.68;6.75;;;1.40;99.90;;;;;;4986700;28;20030;-59
2023/01/23 05:58:32;;;;;;;8.80;5.93;;;1.40;99.90;;;;;;4985916;28;20126;-61
2023/01/23 06:00:58;;;;;;;7.57;5.47;;;1.40;99.90;;;;;;4989051;28;20113;-60
2023/01/23 06:03:24;;;;;;;11.65;6.72;;;1.40;99.90;;;;;;4986017;28;20081;-61
2023/01/23 06:05:49;;;;;;;9.13;6.72;;;1.40;99.90;;;;;;4989205;28;20069;-61
2023/01/23 06:08:15;;;;;;;8.35;6.50;;;1.40;99.90;;;;;;4985885;28;20038;-61
2023/01/23 06:10:40;;;;;;;8.18;5.55;;;1.40;99.90;;;;;;4986806;28;20480;-59
2023/01/23 06:13:06;;;;;;;8.13;6.35;;;1.40;99.90;;;;;;4987727;28;20022;-61
2023/01/23 06:15:31;;;;;;;9.57;6.80;;;1.40;99.90;;;;;;4986628;28;20037;-62
2023/01/23 06:17:57;;;;;;;10.45;6.68;;;1.40;99.90;;;;;;4987996;28;20014;-60
2023/01/23 06:20:22;;;;;;;8.43;6.78;;;1.30;99.90;;;;;;4985441;28;20031;-60
2023/01/23 06:22:48;;;;;;;9.52;6.28;;;1.40;99.90;;;;;;4985713;28;20626;-63
2023/01/23 06:25:14;;;;;;;8.75;6.60;;;1.40;99.90;;;;;;4985824;28;20022;-61
2023/01/23 06:27:39;;;;;;;9.50;7.45;;;1.40;99.90;;;;;;4986762;28;21138;-60
2023/01/23 06:30:05;;;;;;;8.38;5.93;;;1.40;99.90;;;;;;4986837;28;20034;-58
2023/01/23 06:32:31;;;;;;;10.05;6.45;;;1.40;99.90;;;;;;4987169;28;20161;-60
2023/01/23 06:34:56;;;;;;;10.43;7.22;;;1.40;99.90;;;;;;4988080;28;20478;-58
2023/01/23 06:37:22;;;;;;;8.23;6.45;;;1.40;99.90;;;;;;4986458;28;20095;-60
2023/01/23 06:39:47;;;;;;;8.40;6.50;;;1.40;99.90;;;;;;4988333;28;20153;-59
2023/01/23 06:42:13;;;;;;;9.35;6.53;;;1.40;99.90;;;;;;4986907;28;20097;-59
2023/01/23 06:44:39;;;;;;;11.82;7.93;;;1.40;99.90;;;;;;4984892;28;20157;-59
2023/01/23 06:47:04;;;;;;;8.85;7.05;;;1.40;99.90;;;;;;4987234;28;20027;-59
2023/01/23 06:49:30;;;;;;;13.27;7.78;;;1.40;99.90;;;;;;4985735;28;20134;-60
2023/01/23 06:51:55;;;;;;;10.15;7.32;;;1.40;99.90;;;;;;4987381;28;20654;-57
2023/01/23 06:54:21;;;;;;;8.57;6.55;;;1.40;99.90;;;;;;4984215;28;20461;-58
2023/01/23 06:56:48;;;;;;;11.23;7.22;;;1.40;99.90;;;;;;4987240;28;20105;-59
2023/01/23 06:59:14;;;;;;;9.40;6.97;;;1.40;99.90;;;;;;4985445;28;20022;-56
2023/01/23 07:01:41;;;;;;;10.02;7.53;;;1.40;99.90;;;;;;4984617;28;20031;-58
2023/01/23 07:04:07;;;;;;;11.10;7.78;;;1.40;99.90;;;;;;4985473;28;20109;-57
2023/01/23 07:06:33;;;;;;;11.35;8.23;;;1.40;99.90;;;;;;4983838;28;20030;-60
2023/01/23 07:08:59;;;;;;;11.70;7.45;;;1.40;99.90;;;;;;4984879;28;20625;-61
2023/01/23 07:11:24;;;;;;;12.65;8.52;;;1.40;99.90;;;;;;4986982;28;20088;-61
2023/01/23 07:13:50;;;;;;;11.00;8.38;;;1.40;99.90;;;;;;4984037;28;20507;-60
2023/01/23 07:16:15;;;;;;;10.82;7.55;;;1.40;99.90;;;;;;4985012;28;20409;-58
2023/01/23 07:18:41;;;;;;;9.27;7.15;;;1.40;99.90;;;;;;4986946;28;20029;-61
2023/01/23 07:21:07;;;;;;;12.82;7.75;;;1.40;99.90;;;;;;4984485;28;20133;-58
2023/01/23 07:23:33;;;;;;;9.48;7.75;;;1.40;99.90;;;;;;4985675;28;20030;-59
2023/01/23 07:26:06;;;;;;;13.35;8.23;;;1.40;99.90;;;;;;4984490;28;20528;-59
2023/01/23 07:28:32;;;;;;;11.25;7.57;;;1.40;99.90;;;;;;4984121;28;20034;-60
2023/01/23 07:30:58;;;;;;;11.32;8.57;;;1.40;99.90;;;;;;4984370;28;20081;-60
2023/01/23 07:33:24;;;;;;;12.07;8.85;;;1.40;99.90;;;;;;4984627;28;20185;-58
2023/01/23 07:35:49;;;;;;;10.82;7.85;;;1.40;99.90;;;;;;4984791;28;20117;-59
2023/01/23 07:38:15;;;;;;;10.68;7.55;;;1.40;99.90;;;;;;4984821;28;20033;-59
2023/01/23 07:40:43;;;;;;;11.20;7.70;;;1.40;99.90;;;;;;4985591;28;20030;-60
2023/01/23 07:43:08;;;;;;;13.43;8.25;;;1.40;99.90;;;;;;4986209;28;20026;-57
2023/01/23 07:45:34;;;;;;;13.30;8.27;;;1.40;99.90;;;;;;4989706;28;20057;-60
2023/01/23 07:48:00;;;;;;;12.10;7.63;;;1.50;99.90;;;;;;4988349;28;20498;-61
2023/01/23 07:50:25;;;;;;;11.65;7.22;;;1.40;99.90;;;;;;4990105;28;20030;-57
2023/01/23 07:52:51;;;;;;;10.18;7.72;;;1.50;99.90;;;;;;4987620;28;20022;-59
2023/01/23 07:55:17;;;;;;;10.05;7.18;;;1.50;99.90;;;;;;4990313;28;20512;-57
2023/01/23 07:57:43;;;;;;;11.30;7.35;;;1.50;99.90;;;;;;4986424;28;20474;-58
2023/01/23 08:00:10;;;;;;;10.80;7.43;;;1.50;99.90;;;;;;4990993;28;20053;-59
2023/01/23 08:02:37;;;;;;;10.98;7.32;;;1.50;99.90;;;;;;4990383;28;20104;-57
2023/01/23 08:05:02;;;;;;;9.18;7.03;;;1.50;99.90;;;;;;4989434;28;20033;-60
2023/01/23 08:07:28;;;;;;;13.93;7.90;;;1.50;99.90;;;;;;4988578;28;20034;-58
2023/01/23 08:09:54;;;;;;;11.50;8.02;;;1.50;99.90;;;;;;4988567;28;20062;-55
2023/01/23 08:12:19;;;;;;;10.63;7.47;;;1.50;99.90;;;;;;4989798;28;20481;-59
2023/01/23 08:14:46;;;;;;;12.80;8.13;;;1.50;99.90;;;;;;4990353;28;20019;-60
2023/01/23 08:17:11;;;;;;;12.18;7.30;;;1.50;99.90;;;;;;4987809;28;20103;-58
2023/01/23 08:19:37;;;;;;;10.07;8.15;;;1.60;99.90;;;;;;4990766;28;20057;-58
2023/01/23 08:22:03;;;;;;;8.52;6.63;;;1.60;99.90;;;;;;4988085;28;20414;-55
2023/01/23 08:24:28;;;;;;;11.20;7.93;;;1.60;99.90;;;;;;4990374;28;20500;-61
2023/01/23 08:26:54;;;;;;;12.25;8.15;;;1.60;99.90;;;;;;4986807;28;20026;-59
2023/01/23 08:29:19;;;;;;;12.35;7.07;;;1.60;99.90;;;;;;4990512;28;20033;-59
2023/01/23 08:31:45;;;;;;;10.45;7.28;;;1.60;99.90;;;;;;4989343;28;20038;-59
2023/01/23 08:34:10;;;;;;;12.88;8.32;;;1.60;99.90;;;;;;4988793;28;20113;-60
2023/01/23 08:36:36;;;;;;;13.00;7.72;;;1.60;99.90;;;;;;4987859;28;20054;-61
2023/01/23 08:39:02;;;;;;;10.48;7.88;;;1.60;99.90;;;;;;4988739;28;20470;-58
2023/01/23 08:41:27;;;;;;;11.23;7.95;;;1.60;99.90;;;;;;4989307;28;20883;-61
2023/01/23 08:43:53;;;;;;;11.18;8.15;;;1.60;99.90;;;;;;4987245;28;20026;-60
2023/01/23 08:46:19;;;;;;;11.10;7.95;;;1.60;99.90;;;;;;4989546;28;20033;-58
2023/01/23 08:48:44;;;;;;;13.00;7.75;;;1.60;99.90;;;;;;4987781;28;20033;-60
2023/01/23 08:51:12;;;;;;;12.63;8.30;;;1.60;99.90;;;;;;4988612;28;20026;-61
2023/01/23 08:53:38;;;;;;;10.30;7.47;;;1.60;99.90;;;;;;4990451;28;20030;-58
2023/01/23 08:56:15;;;;;;;9.82;7.43;;;1.60;99.90;;;;;;4988310;28;20031;-59
2023/01/23 08:58:41;;;;;;;14.52;8.05;;;1.60;99.90;;;;;;4985887;28;20037;-58
2023/01/23 09:01:11;;;;;;;13.30;7.85;;;1.60;99.90;;;;;;4987837;28;20035;-58
2023/01/23 09:03:37;;;;;;;11.95;7.55;;;1.60;99.90;;;;;;4988888;28;20022;-59
2023/01/23 09:06:03;;;;;;;9.15;7.47;;;1.60;99.90;;;;;;4987939;28;20045;-59
2023/01/23 09:08:29;;;;;;;13.55;7.72;;;1.70;99.90;;;;;;4986941;28;20096;-60
2023/01/23 09:11:03;;;;;;;11.18;7.60;;;1.70;99.90;;;;;;4988844;28;20081;-60
2023/01/23 09:13:29;;;;;;;10.88;7.32;;;1.70;99.90;;;;;;4987359;28;20493;-61
2023/01/23 09:15:55;;;;;;;9.48;6.60;;;1.70;99.90;;;;;;4983798;28;20035;-60
2023/01/23 09:18:21;;;;;;;13.65;8.10;;;1.70;99.90;;;;;;4988585;28;20022;-58
2023/01/23 09:20:48;;;;;;;10.40;7.32;;;1.70;99.90;;;;;;4987708;28;20038;-61
2023/01/23 09:23:14;;;;;;;12.13;8.00;;;1.80;99.90;;;;;;4988219;28;20444;-61
2023/01/23 09:25:39;;;;;;;9.98;7.80;;;1.80;99.90;;;;;;4987345;28;20030;-61
2023/01/23 09:28:05;;;;;;;11.43;7.57;;;1.80;99.90;;;;;;4988442;28;20031;-62
2023/01/23 09:30:31;;;;;;;12.13;7.57;;;1.90;99.90;;;;;;4986234;28;20513;-58
2023/01/23 09:32:56;;;;;;;13.40;8.05;;;1.90;99.90;;;;;;4986377;28;20507;-60
2023/01/23 09:35:22;;;;;;;11.07;7.38;;;2.00;99.90;;;;;;4987593;28;20405;-59
2023/01/23 09:38:01;;;;;;;10.57;7.40;;;2.00;99.90;;;;;;4988226;28;20022;-61
2023/01/23 09:40:57;;;;;;;10.25;6.93;;;2.00;99.90;;;;;;4987651;28;20030;-59
2023/01/23 09:43:25;;;;;;;12.10;7.50;;;2.00;99.90;;;;;;4980987;28;20093;-60
2023/01/23 09:46:00;;;;;;;10.45;7.40;;;2.00;99.90;;;;;;4987138;28;20029;-60
2023/01/23 09:48:30;;;;;;;10.68;7.63;;;2.00;99.90;;;;;;4989542;28;20635;-59
2023/01/23 09:51:03;;;;;;;12.35;8.30;;;2.00;99.90;;;;;;4985332;28;20496;-61
2023/01/23 09:53:36;;;;;;;11.23;7.78;;;2.00;99.90;;;;;;4988887;28;20077;-58
2023/01/23 09:56:09;;;;;;;9.02;7.00;;;2.00;99.90;;;;;;4986826;28;20027;-58
2023/01/23 09:58:57;;;;;;;10.30;6.55;;;2.10;99.90;;;;;;4987188;28;20026;-58
2023/01/23 10:01:25;;;;;;;10.93;7.53;;;2.10;99.90;;;;;;4986356;28;20483;-57
2023/01/23 10:03:50;;;;;;;9.48;7.20;;;2.20;99.90;;;;;;4987157;28;20507;-61
2023/01/23 10:06:23;;;;;;;9.63;7.18;;;2.20;99.90;;;;;;4985754;28;20031;-60
2023/01/23 10:09:07;;;;;;;9.60;7.20;;;2.20;99.90;;;;;;4988666;28;20054;-61
2023/01/23 10:12:03;;;;;;;11.27;7.85;;;2.20;99.90;;;;;;4986722;28;20042;-58
2023/01/23 10:14:45;;;;;;;9.98;7.32;;;2.20;99.90;;;;;;4986283;28;20034;-62
2023/01/23 10:17:28;;;;;;;8.80;6.55;;;2.30;99.90;;;;;;4987512;28;20018;-56
2023/01/23 10:20:09;;;;;;;11.82;7.40;;;2.30;99.90;;;;;;4986754;28;20074;-61
2023/01/23 10:22:43;;;;;;;9.55;7.32;;;2.30;99.90;;;;;;4986022;28;20033;-60
2023/01/23 10:25:18;;;;;;;9.60;7.38;;;2.40;99.90;;;;;;4986692;28;20019;-59
2023/01/23 10:27:47;;;;;;;11.50;6.90;;;2.40;99.90;;;;;;4983661;28;20397;-53
2023/01/23 10:30:21;;;;;;;12.00;7.78;;;2.40;99.90;;;;;;4987604;28;20053;-59
2023/01/23 10:33:01;;;;;;;10.60;7.88;;;2.50;99.90;;;;;;4986040;28;20026;-59
2023/01/23 10:35:34;;;;;;;10.27;7.18;;;2.50;99.90;;;;;;4986446;28;20318;-57
2023/01/23 10:38:03;;;;;;;11.68;7.63;;;2.50;99.90;;;;;;4988126;28;20022;-55
2023/01/23 10:43:19;;;;;;;10.60;6.82;;;2.60;99.90;;;;;;4984575;28;20123;-61
2023/01/23 10:45:46;;;;;;;11.25;6.97;;;2.70;99.90;;;;;;4986959;28;20511;-58
2023/01/23 10:48:45;;;;;;;10.35;7.47;;;2.70;99.90;;;;;;4986409;28;20362;-61
2023/01/23 10:51:37;;;;;;;8.82;7.15;;;2.70;99.90;;;;;;4951631;28;20057;-58
2023/01/23 10:54:11;;;;;;;10.57;7.72;;;2.70;99.90;;;;;;4984350;28;20105;-58
2023/01/23 10:56:57;;;;;;;9.15;7.35;;;2.80;99.90;;;;;;4984363;28;20054;-58
2023/01/23 10:59:38;;;;;;;9.25;6.97;;;2.80;99.90;;;;;;4986658;28;20038;-57
2023/01/23 11:02:13;;;;;;;8.68;6.70;;;2.80;99.90;;;;;;4986504;28;20049;-59
2023/01/23 11:04:41;;;;;;;9.40;6.88;;;2.80;99.90;;;;;;4985532;28;20099;-60
2023/01/23 11:07:13;;;;;;;11.35;7.32;;;2.80;99.90;;;;;;4986702;28;20030;-56
2023/01/23 11:09:50;;;;;;;10.85;7.25;;;2.80;99.90;;;;;;4983711;28;20039;-56
2023/01/23 11:12:27;;;;;;;12.75;7.47;;;2.90;99.90;;;;;;4985906;28;20037;-60
2023/01/23 11:15:10;;;;;;;;;;;2.90;99.90;;;;;;4984325;28;20459;-62
2023/01/23 11:17:36;;;;;;;10.77;7.18;;;2.90;99.90;;;;;;4986148;28;19968;-57
2023/01/23 11:20:20;;;;;;;12.43;7.97;;;2.90;99.90;;;;;;4987573;28;20022;-59
2023/01/23 11:22:45;;;;;;;11.57;7.43;;;2.90;99.90;;;;;;4986950;28;20029;-57
2023/01/23 11:25:26;;;;;;;8.88;6.40;;;2.90;99.90;;;;;;4987049;28;20022;-55
2023/01/23 11:27:57;;;;;;;14.25;7.80;;;2.90;99.90;;;;;;4987115;28;20022;-56
2023/01/23 11:30:42;;;;;;;12.35;8.20;;;2.90;99.90;;;;;;4984438;28;20035;-52
2023/01/23 11:33:18;;;;;;;9.85;6.68;;;3.00;99.90;;;;;;4987421;28;20030;-59
2023/01/23 11:35:51;;;;;;;10.43;7.35;;;3.00;99.90;;;;;;4985271;28;20098;-58
2023/01/23 11:38:21;;;;;;;12.15;7.53;;;3.00;99.90;;;;;;4986619;28;20097;-58
2023/01/23 11:40:47;;;;;;;9.25;7.05;;;3.10;99.90;;;;;;4984739;28;20511;-58
2023/01/23 11:43:16;;;;;;;13.52;8.07;;;3.10;99.90;;;;;;4985729;28;20072;-53
2023/01/23 11:45:56;;;;;;;12.02;7.90;;;3.10;99.90;;;;;;4983398;28;20053;-56
2023/01/23 11:48:27;;;;;;;11.32;7.45;;;3.10;99.90;;;;;;4987023;28;20046;-58
2023/01/23 11:51:03;;;;;;;10.98;6.90;;;3.00;99.90;;;;;;4983099;28;20464;-62
2023/01/23 11:54:33;;;;;;;10.90;7.35;;;3.10;99.90;;;;;;4986511;28;20420;-56
2023/01/23 11:57:07;;;;;;;9.18;6.90;;;3.10;99.90;;;;;;4918325;29;20070;-56
2023/01/23 11:59:40;;;;;;;11.88;7.00;;;3.10;99.90;;;;;;4918125;29;20031;-57
2023/01/23 12:02:11;;;;;;;10.55;6.80;;;3.10;99.90;;;;;;4968961;28;20057;-58
2023/01/23 12:04:58;;;;;;;10.38;7.20;;;3.10;99.90;;;;;;4986033;28;20019;-58
2023/01/23 12:07:24;;;;;;;10.32;7.47;;;3.20;99.90;;;;;;4984191;28;20035;-60
2023/01/23 12:10:10;;;;;;;11.02;8.13;;;3.10;99.90;;;;;;4986090;28;20030;-57
2023/01/23 12:13:01;;;;;;;11.98;8.10;;;3.10;99.90;;;;;;4984810;28;20030;-58
2023/01/23 12:15:36;;;;;;;9.98;7.13;;;3.00;99.90;;;;;;4952432;28;20549;-56
2023/01/23 12:18:24;;;;;;;12.55;7.43;;;3.00;99.90;;;;;;4987647;28;20029;-56
2023/01/23 12:21:02;;;;;;;11.40;7.57;;;3.00;99.90;;;;;;4985920;28;20030;-58
2023/01/23 12:23:44;;;;;;;9.38;7.47;;;3.00;99.90;;;;;;4985421;28;20042;-57
2023/01/23 12:26:10;;;;;;;12.93;7.85;;;3.00;99.90;;;;;;4985321;28;20575;-57
2023/01/23 12:29:00;;;;;;;13.55;7.95;;;3.00;99.90;;;;;;4988060;28;20038;-55
2023/01/23 12:31:28;;;;;;;10.68;7.47;;;3.00;99.90;;;;;;4990254;28;20496;-57
2023/01/23 12:34:26;;;;;;;9.95;7.35;;;3.00;99.90;;;;;;4987837;28;20027;-59
2023/01/23 12:37:10;;;;;;;9.93;6.90;;;3.10;99.90;;;;;;4989100;28;20408;-59
2023/01/23 12:39:59;;;;;;;12.35;8.13;;;3.10;99.90;;;;;;4986503;28;20046;-58
2023/01/23 12:42:27;;;;;;;11.98;8.48;;;3.10;99.90;;;;;;4989094;28;20448;-60
2023/01/23 12:44:57;;;;;;;13.77;8.27;;;3.10;99.90;;;;;;4988287;28;20033;-60
2023/01/23 12:47:31;;;;;;;11.55;8.82;;;3.00;99.90;;;;;;4989343;28;20061;-59
2023/01/23 12:50:07;;;;;;;11.65;8.50;;;3.00;99.90;;;;;;4989764;28;20030;-58
2023/01/23 12:52:40;;;;;;;13.43;8.90;;;3.00;99.90;;;;;;4989114;28;20045;-55
2023/01/23 12:55:11;;;;;;;11.73;8.88;;;3.00;99.90;;;;;;4989938;28;20707;-57
2023/01/23 12:57:43;;;;;;;12.48;8.73;;;3.00;99.90;;;;;;4989235;28;20092;-58
2023/01/23 13:00:27;;;;;;;11.20;7.47;;;2.90;99.90;;;;;;4988026;28;20531;-60
2023/01/23 13:03:09;;;;;;;13.00;8.63;;;3.00;99.90;;;;;;4990219;28;20068;-60
2023/01/23 13:05:52;;;;;;;10.43;8.13;;;3.00;99.90;;;;;;4989476;28;20497;-55
2023/01/23 13:08:26;;;;;;;14.85;8.48;;;3.00;99.90;;;;;;4985554;28;20030;-60
2023/01/23 13:11:41;;;;;;;10.88;8.50;;;3.10;99.90;;;;;;4990325;28;20409;-60
2023/01/23 13:14:23;;;;;;;12.15;8.55;;;3.10;99.90;;;;;;4990287;28;20018;-59